Vliegveldwaarnemingen Nederland - (AUTO) METAR

Luchtvaartmeteorologische informatie voor operationeel gebruik en vluchtvoorbereiding is beschikbaar op www.luchtvaartmeteo.nl.

ZCZC
SA090855 EHFS     VLISSINGEN AWS   NLD   8 m.
METAR EHFS 090855Z AUTO 19012KT 4200 BR OVC007/// 08/07 Q1027=

ZCZC
SA090925 EHKD     DE KOOY/DE KOOY   NLD   1 m.
METAR EHKD 090925Z AUTO 22014KT 0500 R21/0500N FG OVC001 10/09 Q1025
RED 23013KT 0400 FG BKN001 BKN003 TEMPO 1200 BR SCT003 BKN006=

ZCZC
SA090925 EHFD     F3-FB-1   NLD   50 m.
METAR EHFD 090925Z AUTO 24021KT 2600 BR FEW000/// SCT003/// BKN004///
09/09 Q1021=

ZCZC
SA090925 EHAM     AMSTERDAM/SCHIPHOL   NLD   -3 m.
METAR EHAM 090925Z 21010KT 2500 BR OVC004 09/09 Q1027 BECMG 5000
BKN005=

ZCZC
SA090925 EHVL     VLIELAND   NLD   10 m.
METAR EHVL 090925Z AUTO 23012KT 0350 FG VV000 10/09 Q1025 RED=

ZCZC
SA090925 EHJR     K13-A   NLD   37 m.
METAR EHJR 090925Z NIL=

ZCZC
SA090925 EHLW     LEEUWARDEN/LEEUWARDEN   NLD   1 m.
METAR EHLW 090925Z AUTO 23009KT 200V260 1700 R23/1700N BR OVC001
10/10 Q1025
RED 23010KT 1500 BR BKN002 BKN003 BECMG 0600 FG BKN001=

ZCZC
SA090925 EHDL     ARNHEM/DEELEN   NLD   48 m.
METAR EHDL 090925Z AUTO 20009KT 150V240 1200 R20/1000D BR BKN002
BKN003 BKN100 08/08 Q1027 AMB=

ZCZC
SA090925 EHGG     GRONINGEN/EELDE   NLD   5 m.
METAR EHGG 090925Z AUTO 24010KT 4400 BR SCT005 BKN007 BKN008 10/09
Q1025 TEMPO 2000 BKN002=

ZCZC
SA090925 EHSC     LICHTEILAND GOEREE   NLD   22 m.
METAR EHSC 090925Z NIL=

ZCZC
SA090925 EHSA     EURO PLATFORM   NLD   19 m.
METAR EHSA 090925Z NIL=

ZCZC
SA090925 EHWO     WOENSDRECHT/WOENSDRECHT   NLD   19 m.
METAR EHWO 090925Z AUTO 22006KT 190V250 3000 R25/2600U BR FEW003
BKN008 OVC009 09/08 Q1028 REDZ
YLO 21008KT 8000 FEW003 SCT006 BKN010 TEMPO 3000 BR -DZ SCT003
BKN005=

ZCZC
SA090925 EHRD     ROTTERDAM/THE HAGUE AIRPORT   NLD   -5 m.
METAR EHRD 090925Z AUTO 21010KT 170V230 5000 BR OVC008 10/08 Q1027
TEMPO 3000 BKN004=

ZCZC
SA090925 EHGR     GILZE-RIJEN/GILZE-RIJEN   NLD   14 m.
METAR EHGR 090925Z AUTO 20007KT 150V240 4100 BR OVC004 08/08 Q1028
YLO 21007KT 5000 BR BKN006 OVC010 TEMPO BKN003=

ZCZC
SA090925 EHEH     EINDHOVEN/EINDHOVEN   NLD   22 m.
METAR EHEH 090925Z AUTO 21008KT 180V260 3300 R21/P3000D BR BKN006
OVC008 09/08 Q1028
YLO 20008KT 6000 BR OVC008 TEMPO 2000 -DZ BR SCT005 BKN006=

ZCZC
SA090925 EHVK     VOLKEL/VOLKEL   NLD   21 m.
METAR EHVK 090925Z AUTO 20007KT 160V230 6000 BR BKN008 OVC009 09/07
Q1028
GRN 21008KT 7000 BKN010 TEMPO 1500 DZ SCT003 BKN005=

ZCZC
SA090925 EHBK     MAASTRICHT/MAASTRICHT-AACHEN   NLD   114 m.
METAR EHBK 090925Z AUTO 20010KT 9999 OVC020 09/05 Q1029 NOSIG=

ZCZC
SA090925 EHFZ     F16-A   NLD   43 m.
METAR EHFZ 090925Z AUTO VRB17KT 4900 BR SCT001 BKN003 BKN005 10/10
Q1022=

ZCZC
SA090925 EHKV     K14-FA-1C   NLD   41 m.
METAR EHKV 090925Z AUTO 21024KT 0450 FG BKN000 BKN001 OVC003 11/11
Q1023=

ZCZC
SA090925 EHMG     L9-FF-1   NLD   44 m.
METAR EHMG 090925Z AUTO 23021KT 7000 SCT004 BKN005 OVC007 11/10
Q1023=

ZCZC
SA090925 EHMA     AWG-1   NLD   40 m.
METAR EHMA 090925Z AUTO 25015KT 1400 BR FEW000 SCT004 BKN005 09/09
Q1024=

ZCZC
SA090925 EHDV     D15-FA-1   NLD   42 m.
METAR EHDV 090925Z AUTO 23023KT 190V320 5000 BR SCT002/// BKN004///
BKN005/// 10/10 Q1021=

ZCZC
SA090925 EHAK     A12-CPP   NLD   48 m.
METAR EHAK 090925Z AUTO 21020KT 5000 BR SCT002/// 09/08 Q1020=

ZCZC
SA090925 EHQE     HOORN-A   NLD   50 m.
METAR EHQE 090925Z AUTO ///20KT //// // OVC000 10/10 Q1024 RE//=

ZCZC
SA090925 EHJA     J6-A   NLD   45 m.
METAR EHJA 090925Z AUTO 21020KT 2100 BR SCT001/// BKN002/// BKN003///
11/10 Q1022 RE//=

ZCZC
SA090925 EHPG     P11-B   NLD   41 m.
METAR EHPG 090925Z AUTO 21023KT 1800 BR SCT000 OVC002 11/11 Q1025=

ZCZC
SA090925 EHHW     BUITENGAATS/BG-OHVS2      42 m.
METAR EHHW 090925Z AUTO 26018KT 220V290 9000 FEW000/// SCT002///
BKN004/// 10/09 Q1024=

09/12/2016 10.30 uur LT